CNV4226 KNYL-KNLC
Flight info
| Callsign | CNV4226 |
|---|---|
| Flight time | N/A |
| Altitude | 32000 |
| Route | NYL1 ARAZI ARGUS IPL KUMBA V458 JLI PMD V197 EHF |
| Aircraft | B737/M-SDE2E3FGHIRWXY/LB1 |
Departure
| Time | 2026-04-25 04:06 |
|---|---|
| Airport | Yuma International Airport / Marine Corps Air Station Yuma (KNYL) |
Arrival
| Time | N/A |
|---|---|
| Airport | Lemoore Naval Air Station (Reeves Field) Airport (KNLC) |
| Time | Latitude | Longitude | Altitude | Speed | Heading |
|---|---|---|---|---|---|
| 2026-04-25 02:59 | 32.66061 | -114.59476 | 208 ft | 0 kts | 44° |
| 2026-04-25 03:20 | 32.66025 | -114.59518 | 208 ft | 0 kts | 44° |
| 2026-04-25 03:21 | 32.66061 | -114.59476 | 208 ft | 0 kts | 44° |
| 2026-04-25 03:38 | 32.66064 | -114.59473 | 208 ft | 2 kts | 40° |
| 2026-04-25 03:38 | 32.66097 | -114.59469 | 208 ft | 2 kts | 315° |
| 2026-04-25 03:38 | 32.66087 | -114.59516 | 207 ft | 7 kts | 232° |
| 2026-04-25 03:38 | 32.66044 | -114.59579 | 206 ft | 6 kts | 249° |
| 2026-04-25 03:39 | 32.66045 | -114.59655 | 205 ft | 7 kts | 280° |
| 2026-04-25 03:39 | 32.66067 | -114.59722 | 203 ft | 5 kts | 318° |
| 2026-04-25 03:39 | 32.66145 | -114.59788 | 203 ft | 13 kts | 317° |
| 2026-04-25 03:39 | 32.66189 | -114.59839 | 203 ft | 2 kts | 314° |
| 2026-04-25 03:40 | 32.66198 | -114.59849 | 203 ft | 0 kts | 314° |
| 2026-04-25 04:05 | 32.66199 | -114.59850 | 203 ft | 1 kts | 314° |
| 2026-04-25 04:05 | 32.66246 | -114.59908 | 203 ft | 17 kts | 312° |
| 2026-04-25 04:05 | 32.66205 | -114.60036 | 200 ft | 32 kts | 221° |
| 2026-04-25 04:05 | 32.65824 | -114.60488 | 197 ft | 121 kts | 226° |
| 2026-04-25 04:06 | 32.65039 | -114.61385 | 272 ft | 181 kts | 224° |
| 2026-04-25 04:06 | 32.64112 | -114.62443 | 1039 ft | 189 kts | 224° |
| 2026-04-25 04:06 | 32.63186 | -114.63582 | 1827 ft | 197 kts | 233° |
| 2026-04-25 04:06 | 32.62778 | -114.65166 | 2347 ft | 210 kts | 275° |
| 2026-04-25 04:07 | 32.63438 | -114.66699 | 3006 ft | 217 kts | 317° |
| 2026-04-25 04:07 | 32.64820 | -114.67412 | 3675 ft | 224 kts | 349° |
| 2026-04-25 04:07 | 32.66405 | -114.67382 | 4350 ft | 228 kts | 4° |
| 2026-04-25 04:07 | 32.68005 | -114.67541 | 4966 ft | 231 kts | 340° |
| 2026-04-25 04:08 | 32.69536 | -114.68209 | 5629 ft | 235 kts | 341° |
| 2026-04-25 04:08 | 32.71262 | -114.68735 | 6005 ft | 263 kts | 346° |
| 2026-04-25 04:08 | 32.73121 | -114.69229 | 6781 ft | 277 kts | 346° |
| 2026-04-25 04:08 | 32.75029 | -114.69972 | 7590 ft | 289 kts | 329° |
| 2026-04-25 04:09 | 32.76503 | -114.71671 | 8493 ft | 293 kts | 297° |
| 2026-04-25 04:09 | 32.77020 | -114.74026 | 9378 ft | 294 kts | 266° |
| 2026-04-25 04:09 | 32.76751 | -114.76453 | 10231 ft | 300 kts | 259° |
| 2026-04-25 04:09 | 32.76528 | -114.79130 | 10534 ft | 329 kts | 265° |
| 2026-04-25 04:10 | 32.76453 | -114.81993 | 10908 ft | 351 kts | 267° |
| 2026-04-25 04:10 | 32.76381 | -114.85027 | 11298 ft | 370 kts | 267° |
| 2026-04-25 04:10 | 32.76308 | -114.88116 | 12040 ft | 377 kts | 267° |
| 2026-04-25 04:10 | 32.76238 | -114.91293 | 12757 ft | 384 kts | 267° |
| 2026-04-25 04:11 | 32.76102 | -114.97752 | 14240 ft | 393 kts | 266° |
| 2026-04-25 04:11 | 32.76031 | -115.01085 | 14977 ft | 397 kts | 266° |
| 2026-04-25 04:11 | 32.75960 | -115.04438 | 15690 ft | 401 kts | 265° |
| 2026-04-25 04:12 | 32.75886 | -115.07867 | 16400 ft | 405 kts | 265° |
| 2026-04-25 04:12 | 32.75813 | -115.11253 | 17071 ft | 408 kts | 265° |
| 2026-04-25 04:12 | 32.75737 | -115.14727 | 17749 ft | 411 kts | 265° |
| 2026-04-25 04:12 | 32.75661 | -115.18163 | 18394 ft | 414 kts | 264° |
| 2026-04-25 04:13 | 32.75582 | -115.21686 | 19041 ft | 417 kts | 264° |
| 2026-04-25 04:13 | 32.75501 | -115.25241 | 19669 ft | 420 kts | 264° |
| 2026-04-25 04:13 | 32.75419 | -115.28836 | 20287 ft | 423 kts | 264° |
| 2026-04-25 04:13 | 32.75338 | -115.32355 | 20904 ft | 424 kts | 264° |
| 2026-04-25 04:14 | 32.75252 | -115.35970 | 21476 ft | 427 kts | 263° |
| 2026-04-25 04:14 | 32.75167 | -115.39560 | 22053 ft | 428 kts | 263° |
| 2026-04-25 04:14 | 32.75082 | -115.43117 | 22596 ft | 430 kts | 263° |
| 2026-04-25 04:14 | 32.74994 | -115.46697 | 23129 ft | 432 kts | 263° |
| 2026-04-25 04:15 | 32.74903 | -115.50388 | 23648 ft | 434 kts | 263° |
| 2026-04-25 04:15 | 32.74889 | -115.54096 | 24164 ft | 438 kts | 266° |
| 2026-04-25 04:15 | 32.75008 | -115.57741 | 24674 ft | 440 kts | 267° |
| 2026-04-25 04:15 | 32.75138 | -115.61491 | 25118 ft | 442 kts | 266° |
| 2026-04-25 04:16 | 32.75240 | -115.65255 | 25589 ft | 443 kts | 265° |
| 2026-04-25 04:16 | 32.75320 | -115.68858 | 26114 ft | 441 kts | 265° |
| 2026-04-25 04:16 | 32.75392 | -115.72585 | 26506 ft | 444 kts | 265° |
| 2026-04-25 04:16 | 32.75465 | -115.76352 | 26983 ft | 444 kts | 264° |
| 2026-04-25 04:17 | 32.75554 | -115.80147 | 27436 ft | 444 kts | 265° |
| 2026-04-25 04:17 | 32.75682 | -115.83926 | 27857 ft | 446 kts | 266° |
| 2026-04-25 04:17 | 32.75813 | -115.87717 | 28370 ft | 443 kts | 265° |
| 2026-04-25 04:17 | 32.75895 | -115.91463 | 28949 ft | 439 kts | 264° |
| 2026-04-25 04:18 | 32.75956 | -115.95197 | 29604 ft | 433 kts | 264° |
| 2026-04-25 04:18 | 32.76062 | -115.98872 | 30211 ft | 431 kts | 268° |
| 2026-04-25 04:18 | 32.76618 | -116.02557 | 30801 ft | 438 kts | 278° |
| 2026-04-25 04:18 | 32.77738 | -116.06029 | 31384 ft | 441 kts | 287° |
| 2026-04-25 04:19 | 32.79214 | -116.09407 | 31807 ft | 445 kts | 293° |
| 2026-04-25 04:19 | 32.81123 | -116.12506 | 31827 ft | 457 kts | 302° |
| 2026-04-25 04:19 | 32.83289 | -116.15404 | 31827 ft | 458 kts | 304° |
| 2026-04-25 04:20 | 32.87564 | -116.21275 | 31860 ft | 453 kts | 302° |
| 2026-04-25 04:20 | 32.91732 | -116.27168 | 31904 ft | 453 kts | 302° |
| 2026-04-25 04:21 | 32.95920 | -116.33012 | 31949 ft | 454 kts | 302° |
| 2026-04-25 04:21 | 33.00098 | -116.38855 | 31994 ft | 451 kts | 303° |
| 2026-04-25 04:22 | 33.04186 | -116.44626 | 32008 ft | 450 kts | 303° |
| 2026-04-25 04:22 | 33.08274 | -116.50426 | 32008 ft | 451 kts | 305° |
| 2026-04-25 04:23 | 33.11871 | -116.55477 | 32008 ft | 450 kts | 307° |